createdAt,value
2024-03-26T00:02:27.825Z,48.10
2024-03-26T00:07:38.504Z,46.80
2024-03-26T00:12:40.284Z,47.10
2024-03-26T00:17:42.370Z,48.60
2024-03-26T00:22:44.084Z,46.10
2024-03-26T00:27:45.857Z,43.90
2024-03-26T00:32:47.630Z,41.40
2024-03-26T00:37:49.303Z,38.20
2024-03-26T00:52:54.281Z,30.90
2024-03-26T00:57:56.200Z,32.90
2024-03-26T01:02:58.245Z,31.00
2024-03-26T01:08:00.144Z,31.20
2024-03-26T01:13:01.832Z,29.90
2024-03-26T01:18:04.002Z,27.70
2024-03-26T01:23:05.924Z,26.70
2024-03-26T01:28:07.695Z,27.70
2024-03-26T01:33:09.575Z,26.60
2024-03-26T01:38:11.525Z,27.00
2024-03-26T01:43:13.475Z,29.60
2024-03-26T01:48:15.203Z,25.90
2024-03-26T01:53:17.326Z,24.80
2024-03-26T01:58:19.376Z,21.50
2024-03-26T02:03:21.536Z,21.90
2024-03-26T02:08:24.044Z,23.60
2024-03-26T02:13:26.098Z,22.90
2024-03-26T02:18:27.879Z,21.90
2024-03-26T02:23:29.670Z,22.50
2024-03-26T02:28:31.398Z,23.80
2024-03-26T02:33:33.066Z,42.00
2024-03-26T02:38:35.084Z,31.80
2024-03-26T02:43:36.890Z,30.90
2024-03-26T02:48:38.607Z,33.00
2024-03-26T02:58:41.989Z,44.10
2024-03-26T03:03:43.679Z,42.80
2024-03-26T03:08:45.386Z,48.90
2024-03-26T03:23:50.379Z,50.00
2024-03-26T03:28:52.115Z,47.70
2024-03-26T03:33:53.770Z,47.90
2024-03-26T05:07:11.007Z,40.70
2024-03-26T05:12:12.645Z,44.60
2024-03-26T05:22:15.853Z,44.90
2024-03-26T05:32:19.067Z,46.90
2024-03-26T05:37:21.656Z,47.80
2024-03-26T05:42:23.535Z,44.80
2024-03-26T05:47:25.480Z,43.80
2024-03-26T05:52:27.184Z,48.40
2024-03-26T06:02:30.532Z,40.90
2024-03-26T06:07:32.271Z,39.50
2024-03-26T06:17:35.611Z,47.30
2024-03-26T06:27:38.926Z,47.30
2024-03-26T08:56:12.247Z,5.00
2024-03-26T09:06:26.355Z,4.60
2024-03-26T09:11:32.494Z,4.70
2024-03-26T09:16:34.221Z,5.30
2024-03-26T09:21:35.886Z,5.30
2024-03-26T09:26:37.578Z,5.40
2024-03-26T09:31:39.474Z,5.80
2024-03-26T09:41:59.718Z,4.80
2024-03-26T09:47:03.251Z,4.90
2024-03-26T09:52:10.311Z,4.90
2024-03-26T09:57:12.022Z,3.70
2024-03-26T10:02:13.795Z,3.70
2024-03-26T10:07:16.238Z,2.50
2024-03-26T10:12:21.496Z,2.70
2024-03-26T10:17:23.317Z,2.30
2024-03-26T10:22:24.960Z,2.80
2024-03-26T10:27:26.753Z,3.10
2024-03-26T10:32:28.828Z,2.40
2024-03-26T10:37:33.214Z,2.40
2024-03-26T10:42:41.822Z,2.20
2024-03-26T10:47:44.277Z,2.10
2024-03-26T10:52:48.186Z,2.00
2024-03-26T10:57:50.436Z,2.20
2024-03-26T11:02:54.578Z,1.60
2024-03-26T11:07:56.333Z,1.80
2024-03-26T11:12:58.566Z,1.30
2024-03-26T11:18:01.689Z,1.50
2024-03-26T11:23:07.151Z,1.40
2024-03-26T11:28:09.004Z,1.70
2024-03-26T11:33:10.742Z,1.20
2024-03-26T11:38:13.811Z,2.50
2024-03-26T11:43:16.293Z,1.80
2024-03-26T11:48:17.970Z,1.80
2024-03-26T11:53:19.982Z,0.90
2024-03-26T11:58:27.936Z,1.40
2024-03-26T12:03:29.634Z,1.20
2024-03-26T12:08:32.542Z,1.60
2024-03-26T12:13:34.537Z,1.10
2024-03-26T12:18:36.556Z,1.10
2024-03-26T12:23:38.769Z,1.00
2024-03-26T12:28:40.545Z,1.60
2024-03-26T12:33:43.964Z,1.10
2024-03-26T12:38:47.748Z,1.30
2024-03-26T12:43:49.606Z,0.90
2024-03-26T12:48:51.571Z,0.70
2024-03-26T12:54:02.749Z,1.40
2024-03-26T12:59:07.260Z,1.10
2024-03-26T13:04:13.429Z,0.80
2024-03-26T13:09:15.199Z,1.20
2024-03-26T13:14:16.957Z,1.80
2024-03-26T13:19:18.614Z,1.80
2024-03-26T13:24:20.715Z,1.00
2024-03-26T13:29:24.228Z,0.70
2024-03-26T13:34:25.875Z,0.80
2024-03-26T13:39:27.612Z,1.50
2024-03-26T13:44:29.459Z,1.30
2024-03-26T13:49:31.442Z,1.00
2024-03-26T13:54:35.323Z,1.20
2024-03-26T13:59:40.102Z,5.70
2024-03-26T14:04:42.114Z,1.00
2024-03-26T14:09:43.758Z,1.90
2024-03-26T14:14:45.543Z,2.10
2024-03-26T14:19:47.261Z,0.80
2024-03-26T14:24:48.975Z,2.20
2024-03-26T14:29:52.012Z,1.90
2024-03-26T14:34:53.805Z,1.80
2024-03-26T14:39:55.593Z,1.50
2024-03-26T14:44:57.320Z,1.10
2024-03-26T14:49:59.063Z,1.10
2024-03-26T14:55:00.870Z,1.30
2024-03-26T15:00:05.913Z,1.10
2024-03-26T15:05:09.297Z,1.00
2024-03-26T15:10:11.138Z,1.10
2024-03-26T15:15:12.864Z,1.20
2024-03-26T15:20:18.173Z,1.60
2024-03-26T15:25:23.358Z,2.90
2024-03-26T15:30:43.664Z,1.70
2024-03-26T15:35:45.441Z,3.40
2024-03-26T15:40:48.210Z,7.90
2024-03-26T15:45:49.911Z,2.90
2024-03-26T15:50:52.427Z,1.60
2024-03-26T15:55:54.283Z,1.50
2024-03-26T16:00:55.986Z,1.40
2024-03-26T16:05:57.697Z,10.00
2024-03-26T16:11:12.691Z,2.30
2024-03-26T16:16:16.343Z,7.70
2024-03-26T16:21:18.435Z,10.50
2024-03-26T16:26:20.219Z,6.00
2024-03-26T16:31:21.842Z,16.50
2024-03-26T16:36:23.548Z,13.90
2024-03-26T16:41:35.226Z,20.40
2024-03-26T16:46:37.995Z,14.20
2024-03-26T16:51:40.812Z,10.40
2024-03-26T16:56:42.481Z,6.80
2024-03-26T17:01:44.154Z,4.60
2024-03-26T17:06:45.772Z,5.20
2024-03-26T17:11:48.246Z,5.10
2024-03-26T17:17:05.595Z,5.30
2024-03-26T17:22:12.145Z,5.30
2024-03-26T17:27:13.943Z,8.50
2024-03-26T17:32:15.717Z,6.50
2024-03-26T17:37:17.613Z,7.00
2024-03-26T17:42:24.162Z,8.10
2024-03-26T17:47:26.394Z,5.70
2024-03-26T17:52:28.155Z,7.10
2024-03-26T17:57:29.865Z,7.00
2024-03-26T18:02:31.674Z,8.50
2024-03-26T18:07:33.268Z,7.20
2024-03-26T18:12:40.104Z,6.40
2024-03-26T18:17:41.815Z,4.90
2024-03-26T18:22:43.479Z,4.90
2024-03-26T18:27:45.293Z,5.30
2024-03-26T18:32:47.114Z,5.70
2024-03-26T18:37:51.669Z,6.70
2024-03-26T18:42:53.323Z,8.80
2024-03-26T18:47:54.943Z,12.70
2024-03-26T18:52:56.616Z,13.40
2024-03-26T18:58:02.668Z,19.60
2024-03-26T19:03:04.875Z,19.10
2024-03-26T19:08:07.034Z,18.80
2024-03-26T19:13:12.638Z,18.10
2024-03-26T19:18:18.069Z,16.10
2024-03-26T19:23:22.515Z,15.30
2024-03-26T19:28:25.721Z,13.60
2024-03-26T19:33:27.794Z,12.00
2024-03-26T19:38:29.550Z,12.70
2024-03-26T19:43:32.061Z,13.40
2024-03-26T19:48:35.565Z,20.00
2024-03-26T19:53:38.846Z,23.20
2024-03-26T19:58:43.431Z,21.50
2024-03-26T20:03:46.178Z,15.40
2024-03-26T20:08:47.995Z,15.10
2024-03-26T20:13:49.981Z,13.20
2024-03-26T20:18:51.747Z,12.60
2024-03-26T20:23:53.524Z,10.50
2024-03-26T20:28:55.712Z,9.50
2024-03-26T20:33:57.408Z,8.20
2024-03-26T20:38:59.617Z,8.30
2024-03-26T20:44:02.067Z,9.60
2024-03-26T20:49:03.831Z,12.50
2024-03-26T20:54:07.558Z,11.10
2024-03-26T20:59:10.102Z,9.50
2024-03-26T21:04:11.936Z,8.10
2024-03-26T21:09:13.627Z,6.70
2024-03-26T21:14:15.378Z,6.80
2024-03-26T21:19:18.508Z,7.70
2024-03-26T21:24:20.142Z,8.00
2024-03-26T21:39:25.041Z,9.80
2024-03-26T21:44:26.737Z,8.90
2024-03-26T21:54:31.930Z,8.10
2024-03-26T21:59:34.109Z,9.70
2024-03-26T22:04:35.983Z,9.10
2024-03-26T22:09:37.866Z,9.40
2024-03-26T22:14:39.740Z,10.60
2024-03-26T22:19:42.343Z,8.50
2024-03-26T22:24:45.652Z,7.40
2024-03-26T22:29:50.215Z,6.80
2024-03-26T22:34:52.278Z,7.90
2024-03-26T22:39:53.958Z,8.20
2024-03-26T22:55:01.629Z,7.90
2024-03-26T23:00:22.332Z,7.90
2024-03-26T23:05:23.976Z,7.30
2024-03-26T23:10:25.737Z,7.90
2024-03-26T23:15:27.464Z,7.80
2024-03-26T23:20:29.148Z,7.80
2024-03-26T23:25:31.254Z,10.70
2024-03-26T23:30:32.860Z,13.00
2024-03-26T23:40:36.555Z,9.80
2024-03-26T23:45:38.237Z,7.40
2024-03-26T23:50:39.870Z,7.30
2024-03-26T23:55:41.588Z,8.30
